sensor_id;sensor_type;location;lat;lon;timestamp;P1;durP1;ratioP1;P2;durP2;ratioP2
38117;SDS011;23928;47.562;7.508;2024-03-02T00:00:06;14.90;;;9.83;;
38117;SDS011;23928;47.562;7.508;2024-03-02T00:02:46;15.47;;;10.03;;
38117;SDS011;23928;47.562;7.508;2024-03-02T00:05:14;13.37;;;10.07;;
38117;SDS011;23928;47.562;7.508;2024-03-02T00:07:57;14.20;;;9.47;;
38117;SDS011;23928;47.562;7.508;2024-03-02T00:10:25;17.07;;;10.40;;
38117;SDS011;23928;47.562;7.508;2024-03-02T00:12:56;15.77;;;10.47;;
38117;SDS011;23928;47.562;7.508;2024-03-02T00:18:08;15.73;;;10.03;;
38117;SDS011;23928;47.562;7.508;2024-03-02T00:20:38;15.20;;;10.63;;
38117;SDS011;23928;47.562;7.508;2024-03-02T00:23:07;18.80;;;11.40;;
38117;SDS011;23928;47.562;7.508;2024-03-02T00:25:39;15.67;;;10.70;;
38117;SDS011;23928;47.562;7.508;2024-03-02T00:28:10;15.13;;;10.87;;
38117;SDS011;23928;47.562;7.508;2024-03-02T00:30:58;14.93;;;10.40;;
38117;SDS011;23928;47.562;7.508;2024-03-02T00:33:26;14.47;;;10.77;;
38117;SDS011;23928;47.562;7.508;2024-03-02T00:35:53;18.83;;;11.10;;
38117;SDS011;23928;47.562;7.508;2024-03-02T00:38:19;14.90;;;10.73;;
38117;SDS011;23928;47.562;7.508;2024-03-02T00:40:45;14.00;;;9.80;;
38117;SDS011;23928;47.562;7.508;2024-03-02T00:43:30;18.90;;;10.20;;
38117;SDS011;23928;47.562;7.508;2024-03-02T00:46:12;15.50;;;10.17;;
38117;SDS011;23928;47.562;7.508;2024-03-02T00:48:42;14.50;;;9.80;;
38117;SDS011;23928;47.562;7.508;2024-03-02T00:51:21;13.67;;;9.50;;
38117;SDS011;23928;47.562;7.508;2024-03-02T00:53:48;15.37;;;10.10;;
38117;SDS011;23928;47.562;7.508;2024-03-02T00:56:14;14.77;;;9.50;;
38117;SDS011;23928;47.562;7.508;2024-03-02T00:58:40;14.67;;;10.17;;
38117;SDS011;23928;47.562;7.508;2024-03-02T01:01:06;19.50;;;11.07;;
38117;SDS011;23928;47.562;7.508;2024-03-02T01:03:32;14.93;;;9.90;;
38117;SDS011;23928;47.562;7.508;2024-03-02T01:05:59;13.27;;;9.43;;
38117;SDS011;23928;47.562;7.508;2024-03-02T01:08:24;14.90;;;10.40;;
38117;SDS011;23928;47.562;7.508;2024-03-02T01:10:51;15.80;;;10.27;;
38117;SDS011;23928;47.562;7.508;2024-03-02T01:13:16;14.87;;;10.70;;
38117;SDS011;23928;47.562;7.508;2024-03-02T01:15:42;16.63;;;10.30;;
38117;SDS011;23928;47.562;7.508;2024-03-02T01:18:07;17.30;;;10.83;;
38117;SDS011;23928;47.562;7.508;2024-03-02T01:20:33;15.97;;;9.90;;
38117;SDS011;23928;47.562;7.508;2024-03-02T01:22:59;19.93;;;11.10;;
38117;SDS011;23928;47.562;7.508;2024-03-02T01:25:24;16.50;;;9.47;;
38117;SDS011;23928;47.562;7.508;2024-03-02T01:27:50;15.17;;;9.53;;
38117;SDS011;23928;47.562;7.508;2024-03-02T01:30:16;19.90;;;11.07;;
38117;SDS011;23928;47.562;7.508;2024-03-02T01:32:41;15.30;;;10.13;;
38117;SDS011;23928;47.562;7.508;2024-03-02T01:35:08;15.67;;;10.80;;
38117;SDS011;23928;47.562;7.508;2024-03-02T01:37:33;14.50;;;9.70;;
38117;SDS011;23928;47.562;7.508;2024-03-02T01:39:59;17.60;;;11.20;;
38117;SDS011;23928;47.562;7.508;2024-03-02T01:42:25;16.20;;;9.77;;
38117;SDS011;23928;47.562;7.508;2024-03-02T01:44:51;17.43;;;10.27;;
38117;SDS011;23928;47.562;7.508;2024-03-02T01:47:17;14.77;;;9.30;;
38117;SDS011;23928;47.562;7.508;2024-03-02T01:49:43;18.60;;;11.00;;
38117;SDS011;23928;47.562;7.508;2024-03-02T01:52:08;13.07;;;9.00;;
38117;SDS011;23928;47.562;7.508;2024-03-02T01:54:34;17.57;;;10.27;;
38117;SDS011;23928;47.562;7.508;2024-03-02T01:57:00;17.03;;;10.63;;
38117;SDS011;23928;47.562;7.508;2024-03-02T01:59:25;14.77;;;9.97;;
38117;SDS011;23928;47.562;7.508;2024-03-02T02:01:52;15.23;;;10.20;;
38117;SDS011;23928;47.562;7.508;2024-03-02T02:04:17;15.33;;;9.70;;
38117;SDS011;23928;47.562;7.508;2024-03-02T02:06:46;15.53;;;9.67;;
38117;SDS011;23928;47.562;7.508;2024-03-02T02:09:12;13.53;;;10.00;;
38117;SDS011;23928;47.562;7.508;2024-03-02T02:11:37;14.73;;;10.23;;
38117;SDS011;23928;47.562;7.508;2024-03-02T02:14:03;15.93;;;10.33;;
38117;SDS011;23928;47.562;7.508;2024-03-02T02:16:28;14.37;;;9.97;;
38117;SDS011;23928;47.562;7.508;2024-03-02T02:18:54;14.17;;;9.57;;
38117;SDS011;23928;47.562;7.508;2024-03-02T02:21:22;20.03;;;11.17;;
38117;SDS011;23928;47.562;7.508;2024-03-02T02:23:48;14.60;;;10.10;;
38117;SDS011;23928;47.562;7.508;2024-03-02T02:26:15;19.40;;;10.43;;
38117;SDS011;23928;47.562;7.508;2024-03-02T02:28:40;14.43;;;9.80;;
38117;SDS011;23928;47.562;7.508;2024-03-02T02:31:12;13.53;;;8.97;;
38117;SDS011;23928;47.562;7.508;2024-03-02T02:33:39;14.60;;;9.17;;
38117;SDS011;23928;47.562;7.508;2024-03-02T02:36:05;13.63;;;8.73;;
38117;SDS011;23928;47.562;7.508;2024-03-02T02:38:31;12.53;;;9.17;;
38117;SDS011;23928;47.562;7.508;2024-03-02T02:41:01;13.37;;;8.90;;
38117;SDS011;23928;47.562;7.508;2024-03-02T02:43:27;13.03;;;8.43;;
38117;SDS011;23928;47.562;7.508;2024-03-02T02:45:53;13.20;;;9.00;;
38117;SDS011;23928;47.562;7.508;2024-03-02T02:48:18;12.10;;;8.67;;
38117;SDS011;23928;47.562;7.508;2024-03-02T02:50:44;13.17;;;8.53;;
38117;SDS011;23928;47.562;7.508;2024-03-02T02:53:09;12.00;;;8.37;;
38117;SDS011;23928;47.562;7.508;2024-03-02T02:55:35;11.20;;;8.07;;
38117;SDS011;23928;47.562;7.508;2024-03-02T02:58:05;12.83;;;8.43;;
38117;SDS011;23928;47.562;7.508;2024-03-02T03:00:31;12.00;;;8.07;;
38117;SDS011;23928;47.562;7.508;2024-03-02T03:02:57;12.27;;;8.73;;
38117;SDS011;23928;47.562;7.508;2024-03-02T03:05:23;14.13;;;8.73;;
38117;SDS011;23928;47.562;7.508;2024-03-02T03:07:48;14.77;;;10.17;;
38117;SDS011;23928;47.562;7.508;2024-03-02T03:10:15;12.40;;;8.67;;
38117;SDS011;23928;47.562;7.508;2024-03-02T03:12:41;14.07;;;9.00;;
38117;SDS011;23928;47.562;7.508;2024-03-02T03:15:08;13.57;;;8.77;;
38117;SDS011;23928;47.562;7.508;2024-03-02T03:17:35;12.20;;;8.73;;
38117;SDS011;23928;47.562;7.508;2024-03-02T03:20:01;12.53;;;8.63;;
38117;SDS011;23928;47.562;7.508;2024-03-02T03:22:27;12.60;;;8.47;;
38117;SDS011;23928;47.562;7.508;2024-03-02T03:24:53;13.13;;;8.67;;
38117;SDS011;23928;47.562;7.508;2024-03-02T03:27:19;11.63;;;8.13;;
38117;SDS011;23928;47.562;7.508;2024-03-02T03:29:47;12.30;;;9.10;;
38117;SDS011;23928;47.562;7.508;2024-03-02T03:32:13;14.50;;;8.90;;
38117;SDS011;23928;47.562;7.508;2024-03-02T03:34:38;12.83;;;8.60;;
38117;SDS011;23928;47.562;7.508;2024-03-02T03:37:05;14.00;;;8.47;;
38117;SDS011;23928;47.562;7.508;2024-03-02T03:39:30;12.80;;;8.20;;
38117;SDS011;23928;47.562;7.508;2024-03-02T03:41:56;10.20;;;7.23;;
38117;SDS011;23928;47.562;7.508;2024-03-02T03:44:22;9.93;;;7.40;;
38117;SDS011;23928;47.562;7.508;2024-03-02T03:46:47;15.77;;;8.60;;
38117;SDS011;23928;47.562;7.508;2024-03-02T03:49:13;12.23;;;7.70;;
38117;SDS011;23928;47.562;7.508;2024-03-02T03:51:39;11.60;;;8.53;;
38117;SDS011;23928;47.562;7.508;2024-03-02T03:54:04;11.33;;;8.27;;
38117;SDS011;23928;47.562;7.508;2024-03-02T03:56:30;11.50;;;8.37;;
38117;SDS011;23928;47.562;7.508;2024-03-02T03:58:55;11.87;;;8.37;;
38117;SDS011;23928;47.562;7.508;2024-03-02T04:01:21;11.43;;;7.97;;
38117;SDS011;23928;47.562;7.508;2024-03-02T04:03:47;15.90;;;8.67;;
38117;SDS011;23928;47.562;7.508;2024-03-02T04:06:13;10.57;;;8.30;;
38117;SDS011;23928;47.562;7.508;2024-03-02T04:08:39;15.20;;;8.70;;
38117;SDS011;23928;47.562;7.508;2024-03-02T04:11:06;13.33;;;8.23;;
38117;SDS011;23928;47.562;7.508;2024-03-02T04:13:32;13.67;;;8.70;;
38117;SDS011;23928;47.562;7.508;2024-03-02T04:15:58;12.37;;;8.03;;
38117;SDS011;23928;47.562;7.508;2024-03-02T04:18:24;11.23;;;7.53;;
38117;SDS011;23928;47.562;7.508;2024-03-02T04:20:49;12.20;;;6.97;;
38117;SDS011;23928;47.562;7.508;2024-03-02T04:23:15;11.33;;;7.83;;
38117;SDS011;23928;47.562;7.508;2024-03-02T04:25:40;11.67;;;8.10;;
38117;SDS011;23928;47.562;7.508;2024-03-02T04:28:06;13.37;;;7.63;;
38117;SDS011;23928;47.562;7.508;2024-03-02T04:30:31;11.30;;;8.07;;
38117;SDS011;23928;47.562;7.508;2024-03-02T04:32:57;10.97;;;7.63;;
38117;SDS011;23928;47.562;7.508;2024-03-02T04:35:22;10.60;;;7.80;;
38117;SDS011;23928;47.562;7.508;2024-03-02T04:37:48;13.47;;;7.90;;
38117;SDS011;23928;47.562;7.508;2024-03-02T04:40:14;14.00;;;7.93;;
38117;SDS011;23928;47.562;7.508;2024-03-02T04:42:39;11.13;;;7.63;;
38117;SDS011;23928;47.562;7.508;2024-03-02T04:45:05;12.57;;;8.07;;
38117;SDS011;23928;47.562;7.508;2024-03-02T04:47:32;12.13;;;8.17;;
38117;SDS011;23928;47.562;7.508;2024-03-02T04:49:57;10.93;;;7.50;;
38117;SDS011;23928;47.562;7.508;2024-03-02T04:52:23;12.23;;;7.97;;
38117;SDS011;23928;47.562;7.508;2024-03-02T04:54:49;14.77;;;8.87;;
38117;SDS011;23928;47.562;7.508;2024-03-02T04:57:33;10.30;;;7.93;;
38117;SDS011;23928;47.562;7.508;2024-03-02T04:59:58;11.70;;;7.87;;
38117;SDS011;23928;47.562;7.508;2024-03-02T05:02:24;12.30;;;8.73;;
38117;SDS011;23928;47.562;7.508;2024-03-02T05:04:49;11.20;;;8.13;;
38117;SDS011;23928;47.562;7.508;2024-03-02T05:07:15;15.30;;;9.23;;
38117;SDS011;23928;47.562;7.508;2024-03-02T05:09:41;12.43;;;8.70;;
38117;SDS011;23928;47.562;7.508;2024-03-02T05:12:07;16.90;;;10.03;;
38117;SDS011;23928;47.562;7.508;2024-03-02T05:15:00;14.10;;;9.27;;
38117;SDS011;23928;47.562;7.508;2024-03-02T05:17:26;16.97;;;9.20;;
38117;SDS011;23928;47.562;7.508;2024-03-02T05:19:52;13.87;;;9.33;;
38117;SDS011;23928;47.562;7.508;2024-03-02T05:22:18;17.57;;;9.67;;
38117;SDS011;23928;47.562;7.508;2024-03-02T05:24:43;16.77;;;10.47;;
38117;SDS011;23928;47.562;7.508;2024-03-02T05:27:09;17.57;;;11.13;;
38117;SDS011;23928;47.562;7.508;2024-03-02T05:29:34;19.43;;;10.83;;
38117;SDS011;23928;47.562;7.508;2024-03-02T05:32:00;17.80;;;10.87;;
38117;SDS011;23928;47.562;7.508;2024-03-02T05:34:25;17.43;;;10.77;;
38117;SDS011;23928;47.562;7.508;2024-03-02T05:36:51;17.47;;;10.63;;
38117;SDS011;23928;47.562;7.508;2024-03-02T05:39:16;21.33;;;11.53;;
38117;SDS011;23928;47.562;7.508;2024-03-02T05:41:42;18.10;;;11.30;;
38117;SDS011;23928;47.562;7.508;2024-03-02T05:44:07;21.00;;;11.60;;
38117;SDS011;23928;47.562;7.508;2024-03-02T05:46:33;21.83;;;12.20;;
38117;SDS011;23928;47.562;7.508;2024-03-02T05:48:59;18.53;;;10.83;;
38117;SDS011;23928;47.562;7.508;2024-03-02T05:51:25;16.90;;;10.63;;
38117;SDS011;23928;47.562;7.508;2024-03-02T05:53:51;17.43;;;11.00;;
38117;SDS011;23928;47.562;7.508;2024-03-02T05:56:17;18.93;;;11.57;;
38117;SDS011;23928;47.562;7.508;2024-03-02T05:58:42;15.63;;;10.13;;
38117;SDS011;23928;47.562;7.508;2024-03-02T06:01:14;15.97;;;10.33;;
38117;SDS011;23928;47.562;7.508;2024-03-02T06:03:39;19.43;;;11.57;;
38117;SDS011;23928;47.562;7.508;2024-03-02T06:06:05;18.73;;;10.87;;
38117;SDS011;23928;47.562;7.508;2024-03-02T06:08:31;16.40;;;11.13;;
38117;SDS011;23928;47.562;7.508;2024-03-02T06:10:57;16.90;;;10.77;;
38117;SDS011;23928;47.562;7.508;2024-03-02T06:13:23;17.87;;;9.70;;
38117;SDS011;23928;47.562;7.508;2024-03-02T06:15:50;17.20;;;10.43;;
38117;SDS011;23928;47.562;7.508;2024-03-02T06:18:16;14.87;;;9.67;;
38117;SDS011;23928;47.562;7.508;2024-03-02T06:20:41;16.90;;;10.83;;
38117;SDS011;23928;47.562;7.508;2024-03-02T06:23:07;16.07;;;10.43;;
38117;SDS011;23928;47.562;7.508;2024-03-02T06:25:33;16.30;;;10.07;;
38117;SDS011;23928;47.562;7.508;2024-03-02T06:27:58;16.83;;;10.20;;
38117;SDS011;23928;47.562;7.508;2024-03-02T06:30:24;15.93;;;9.70;;
38117;SDS011;23928;47.562;7.508;2024-03-02T06:32:50;18.33;;;10.13;;
38117;SDS011;23928;47.562;7.508;2024-03-02T06:35:15;13.93;;;9.23;;
38117;SDS011;23928;47.562;7.508;2024-03-02T06:37:41;14.93;;;9.50;;
38117;SDS011;23928;47.562;7.508;2024-03-02T06:40:07;15.70;;;9.73;;
38117;SDS011;23928;47.562;7.508;2024-03-02T06:42:33;17.10;;;10.20;;
38117;SDS011;23928;47.562;7.508;2024-03-02T06:44:59;13.57;;;9.67;;
38117;SDS011;23928;47.562;7.508;2024-03-02T06:47:25;16.03;;;10.23;;
38117;SDS011;23928;47.562;7.508;2024-03-02T06:49:51;14.57;;;9.60;;
38117;SDS011;23928;47.562;7.508;2024-03-02T06:52:18;16.07;;;10.47;;
38117;SDS011;23928;47.562;7.508;2024-03-02T06:54:43;16.70;;;10.07;;
38117;SDS011;23928;47.562;7.508;2024-03-02T06:57:09;18.50;;;10.77;;
38117;SDS011;23928;47.562;7.508;2024-03-02T06:59:35;20.37;;;11.90;;
38117;SDS011;23928;47.562;7.508;2024-03-02T07:02:00;18.37;;;11.17;;
38117;SDS011;23928;47.562;7.508;2024-03-02T07:04:26;19.90;;;11.23;;
38117;SDS011;23928;47.562;7.508;2024-03-02T07:06:52;16.63;;;11.17;;
38117;SDS011;23928;47.562;7.508;2024-03-02T07:09:18;19.57;;;12.03;;
38117;SDS011;23928;47.562;7.508;2024-03-02T07:11:47;19.73;;;11.50;;
38117;SDS011;23928;47.562;7.508;2024-03-02T07:14:13;17.97;;;10.70;;
38117;SDS011;23928;47.562;7.508;2024-03-02T07:16:38;18.70;;;11.67;;
38117;SDS011;23928;47.562;7.508;2024-03-02T07:19:05;18.33;;;12.50;;
38117;SDS011;23928;47.562;7.508;2024-03-02T07:21:31;19.57;;;12.00;;
38117;SDS011;23928;47.562;7.508;2024-03-02T07:23:58;18.23;;;11.30;;
38117;SDS011;23928;47.562;7.508;2024-03-02T07:26:24;17.97;;;11.67;;
38117;SDS011;23928;47.562;7.508;2024-03-02T07:28:50;18.23;;;12.10;;
38117;SDS011;23928;47.562;7.508;2024-03-02T07:31:16;20.27;;;12.43;;
38117;SDS011;23928;47.562;7.508;2024-03-02T07:33:45;16.87;;;11.27;;
38117;SDS011;23928;47.562;7.508;2024-03-02T07:36:13;19.27;;;12.30;;
38117;SDS011;23928;47.562;7.508;2024-03-02T07:38:39;19.90;;;11.20;;
38117;SDS011;23928;47.562;7.508;2024-03-02T07:41:05;18.37;;;10.77;;
38117;SDS011;23928;47.562;7.508;2024-03-02T07:43:31;45.77;;;21.10;;
38117;SDS011;23928;47.562;7.508;2024-03-02T07:45:58;29.57;;;15.37;;
38117;SDS011;23928;47.562;7.508;2024-03-02T07:48:24;32.10;;;17.57;;
38117;SDS011;23928;47.562;7.508;2024-03-02T07:50:50;17.43;;;10.57;;
38117;SDS011;23928;47.562;7.508;2024-03-02T07:53:15;18.97;;;11.20;;
38117;SDS011;23928;47.562;7.508;2024-03-02T07:55:41;21.53;;;11.63;;
38117;SDS011;23928;47.562;7.508;2024-03-02T07:58:07;17.27;;;11.20;;
38117;SDS011;23928;47.562;7.508;2024-03-02T08:00:33;19.77;;;11.97;;
38117;SDS011;23928;47.562;7.508;2024-03-02T08:02:58;16.10;;;10.53;;
38117;SDS011;23928;47.562;7.508;2024-03-02T08:05:25;19.73;;;12.20;;
38117;SDS011;23928;47.562;7.508;2024-03-02T08:07:52;21.03;;;12.80;;
38117;SDS011;23928;47.562;7.508;2024-03-02T08:10:18;19.53;;;12.83;;
38117;SDS011;23928;47.562;7.508;2024-03-02T08:12:44;23.03;;;14.93;;
38117;SDS011;23928;47.562;7.508;2024-03-02T08:15:10;19.50;;;12.70;;
38117;SDS011;23928;47.562;7.508;2024-03-02T08:17:35;17.17;;;11.13;;
38117;SDS011;23928;47.562;7.508;2024-03-02T08:20:01;17.57;;;10.63;;
38117;SDS011;23928;47.562;7.508;2024-03-02T08:22:27;19.40;;;11.70;;
38117;SDS011;23928;47.562;7.508;2024-03-02T08:24:53;23.30;;;12.63;;
38117;SDS011;23928;47.562;7.508;2024-03-02T08:27:19;15.73;;;10.47;;
38117;SDS011;23928;47.562;7.508;2024-03-02T08:29:45;18.17;;;11.37;;
38117;SDS011;23928;47.562;7.508;2024-03-02T08:32:10;15.23;;;9.80;;
38117;SDS011;23928;47.562;7.508;2024-03-02T08:34:36;15.87;;;11.13;;
38117;SDS011;23928;47.562;7.508;2024-03-02T08:37:02;18.17;;;11.67;;
38117;SDS011;23928;47.562;7.508;2024-03-02T08:39:28;17.57;;;10.73;;
38117;SDS011;23928;47.562;7.508;2024-03-02T08:41:54;18.30;;;11.37;;
38117;SDS011;23928;47.562;7.508;2024-03-02T08:44:19;17.00;;;10.60;;
38117;SDS011;23928;47.562;7.508;2024-03-02T08:46:45;19.57;;;10.73;;
38117;SDS011;23928;47.562;7.508;2024-03-02T08:49:12;19.37;;;11.33;;
38117;SDS011;23928;47.562;7.508;2024-03-02T08:51:37;18.20;;;10.83;;
38117;SDS011;23928;47.562;7.508;2024-03-02T08:54:03;17.40;;;10.93;;
38117;SDS011;23928;47.562;7.508;2024-03-02T08:56:29;19.73;;;11.07;;
38117;SDS011;23928;47.562;7.508;2024-03-02T08:58:56;16.77;;;10.87;;
38117;SDS011;23928;47.562;7.508;2024-03-02T09:01:21;17.63;;;10.30;;
38117;SDS011;23928;47.562;7.508;2024-03-02T09:03:47;17.87;;;10.47;;
38117;SDS011;23928;47.562;7.508;2024-03-02T09:06:14;15.73;;;10.23;;
38117;SDS011;23928;47.562;7.508;2024-03-02T09:08:41;22.77;;;10.83;;
38117;SDS011;23928;47.562;7.508;2024-03-02T09:11:08;17.00;;;10.47;;
38117;SDS011;23928;47.562;7.508;2024-03-02T09:13:35;17.30;;;11.27;;
38117;SDS011;23928;47.562;7.508;2024-03-02T09:16:01;18.60;;;11.47;;
38117;SDS011;23928;47.562;7.508;2024-03-02T09:18:27;15.70;;;10.57;;
38117;SDS011;23928;47.562;7.508;2024-03-02T09:20:53;17.20;;;9.93;;
38117;SDS011;23928;47.562;7.508;2024-03-02T09:23:18;14.67;;;10.00;;
38117;SDS011;23928;47.562;7.508;2024-03-02T09:25:45;14.13;;;8.97;;
38117;SDS011;23928;47.562;7.508;2024-03-02T09:28:11;11.97;;;8.60;;
38117;SDS011;23928;47.562;7.508;2024-03-02T09:30:37;15.00;;;9.37;;
38117;SDS011;23928;47.562;7.508;2024-03-02T09:33:03;10.70;;;7.83;;
38117;SDS011;23928;47.562;7.508;2024-03-02T09:35:29;11.40;;;8.23;;
38117;SDS011;23928;47.562;7.508;2024-03-02T09:37:55;13.37;;;8.30;;
38117;SDS011;23928;47.562;7.508;2024-03-02T09:40:21;14.00;;;8.60;;
38117;SDS011;23928;47.562;7.508;2024-03-02T09:42:47;13.87;;;8.60;;
38117;SDS011;23928;47.562;7.508;2024-03-02T09:45:20;13.77;;;9.00;;
38117;SDS011;23928;47.562;7.508;2024-03-02T09:47:48;12.07;;;9.00;;
38117;SDS011;23928;47.562;7.508;2024-03-02T09:50:14;12.13;;;7.70;;
38117;SDS011;23928;47.562;7.508;2024-03-02T09:52:40;10.10;;;7.17;;
38117;SDS011;23928;47.562;7.508;2024-03-02T09:55:08;11.10;;;7.10;;
38117;SDS011;23928;47.562;7.508;2024-03-02T09:57:33;9.47;;;6.83;;
38117;SDS011;23928;47.562;7.508;2024-03-02T09:59:59;9.07;;;6.97;;
38117;SDS011;23928;47.562;7.508;2024-03-02T10:02:25;10.27;;;6.93;;
38117;SDS011;23928;47.562;7.508;2024-03-02T10:04:51;9.77;;;6.63;;
38117;SDS011;23928;47.562;7.508;2024-03-02T10:07:17;8.87;;;6.60;;
38117;SDS011;23928;47.562;7.508;2024-03-02T10:09:44;9.17;;;6.40;;
38117;SDS011;23928;47.562;7.508;2024-03-02T10:12:12;10.40;;;6.17;;
38117;SDS011;23928;47.562;7.508;2024-03-02T10:14:39;11.17;;;7.70;;
38117;SDS011;23928;47.562;7.508;2024-03-02T10:17:06;9.73;;;5.97;;
38117;SDS011;23928;47.562;7.508;2024-03-02T10:19:33;9.10;;;6.20;;
38117;SDS011;23928;47.562;7.508;2024-03-02T10:22:09;6.93;;;5.70;;
38117;SDS011;23928;47.562;7.508;2024-03-02T10:27:08;8.27;;;5.93;;
38117;SDS011;23928;47.562;7.508;2024-03-02T10:29:47;8.20;;;5.57;;
38117;SDS011;23928;47.562;7.508;2024-03-02T10:32:13;7.77;;;5.73;;
38117;SDS011;23928;47.562;7.508;2024-03-02T10:34:40;7.40;;;5.03;;
38117;SDS011;23928;47.562;7.508;2024-03-02T10:37:06;6.40;;;4.80;;
38117;SDS011;23928;47.562;7.508;2024-03-02T10:39:32;7.37;;;5.33;;
38117;SDS011;23928;47.562;7.508;2024-03-02T10:42:00;6.70;;;4.63;;
38117;SDS011;23928;47.562;7.508;2024-03-02T10:44:28;5.30;;;4.30;;
38117;SDS011;23928;47.562;7.508;2024-03-02T10:46:55;5.57;;;4.17;;
38117;SDS011;23928;47.562;7.508;2024-03-02T10:49:21;5.47;;;4.90;;
38117;SDS011;23928;47.562;7.508;2024-03-02T10:51:49;5.50;;;4.73;;
38117;SDS011;23928;47.562;7.508;2024-03-02T10:54:14;5.60;;;4.30;;
38117;SDS011;23928;47.562;7.508;2024-03-02T10:56:40;5.70;;;4.70;;
38117;SDS011;23928;47.562;7.508;2024-03-02T10:59:16;6.67;;;4.37;;
38117;SDS011;23928;47.562;7.508;2024-03-02T11:01:43;6.80;;;4.70;;
38117;SDS011;23928;47.562;7.508;2024-03-02T11:04:12;4.70;;;3.67;;
38117;SDS011;23928;47.562;7.508;2024-03-02T11:06:42;8.00;;;4.60;;
38117;SDS011;23928;47.562;7.508;2024-03-02T11:09:16;5.60;;;4.40;;
38117;SDS011;23928;47.562;7.508;2024-03-02T11:11:44;4.93;;;4.03;;
38117;SDS011;23928;47.562;7.508;2024-03-02T11:14:16;5.67;;;4.77;;
38117;SDS011;23928;47.562;7.508;2024-03-02T11:16:46;5.10;;;3.87;;
38117;SDS011;23928;47.562;7.508;2024-03-02T11:19:13;4.47;;;3.90;;
38117;SDS011;23928;47.562;7.508;2024-03-02T11:21:40;5.33;;;3.60;;
38117;SDS011;23928;47.562;7.508;2024-03-02T11:26:47;3.83;;;3.40;;
38117;SDS011;23928;47.562;7.508;2024-03-02T11:32:01;4.70;;;3.77;;
38117;SDS011;23928;47.562;7.508;2024-03-02T11:34:30;5.80;;;3.47;;
38117;SDS011;23928;47.562;7.508;2024-03-02T11:36:57;4.90;;;3.60;;
38117;SDS011;23928;47.562;7.508;2024-03-02T11:39:24;4.23;;;3.50;;
38117;SDS011;23928;47.562;7.508;2024-03-02T11:41:53;4.53;;;3.00;;
38117;SDS011;23928;47.562;7.508;2024-03-02T11:44:20;3.90;;;3.20;;
38117;SDS011;23928;47.562;7.508;2024-03-02T11:46:46;4.33;;;3.80;;
38117;SDS011;23928;47.562;7.508;2024-03-02T11:49:31;6.50;;;2.90;;
38117;SDS011;23928;47.562;7.508;2024-03-02T11:52:03;3.70;;;3.20;;
38117;SDS011;23928;47.562;7.508;2024-03-02T11:54:31;5.07;;;3.70;;
38117;SDS011;23928;47.562;7.508;2024-03-02T11:57:03;3.83;;;3.30;;
38117;SDS011;23928;47.562;7.508;2024-03-02T11:59:30;4.07;;;3.50;;
38117;SDS011;23928;47.562;7.508;2024-03-02T12:01:55;4.10;;;2.70;;
38117;SDS011;23928;47.562;7.508;2024-03-02T12:04:22;3.23;;;2.87;;
38117;SDS011;23928;47.562;7.508;2024-03-02T12:06:54;4.07;;;3.17;;
38117;SDS011;23928;47.562;7.508;2024-03-02T12:09:29;3.37;;;2.80;;
38117;SDS011;23928;47.562;7.508;2024-03-02T12:12:04;3.70;;;3.00;;
38117;SDS011;23928;47.562;7.508;2024-03-02T12:14:31;4.77;;;3.80;;
38117;SDS011;23928;47.562;7.508;2024-03-02T12:16:58;4.57;;;2.63;;
38117;SDS011;23928;47.562;7.508;2024-03-02T12:19:24;4.10;;;2.90;;
38117;SDS011;23928;47.562;7.508;2024-03-02T12:21:51;4.03;;;2.40;;
38117;SDS011;23928;47.562;7.508;2024-03-02T12:24:17;4.00;;;2.77;;
38117;SDS011;23928;47.562;7.508;2024-03-02T12:26:42;3.63;;;2.33;;
38117;SDS011;23928;47.562;7.508;2024-03-02T12:29:08;4.50;;;3.30;;
38117;SDS011;23928;47.562;7.508;2024-03-02T12:31:34;4.17;;;3.07;;
38117;SDS011;23928;47.562;7.508;2024-03-02T12:34:00;3.90;;;2.73;;
38117;SDS011;23928;47.562;7.508;2024-03-02T12:36:27;6.43;;;3.00;;
38117;SDS011;23928;47.562;7.508;2024-03-02T12:38:53;3.70;;;3.13;;
38117;SDS011;23928;47.562;7.508;2024-03-02T12:41:19;5.33;;;3.53;;
38117;SDS011;23928;47.562;7.508;2024-03-02T12:43:45;4.53;;;3.03;;
38117;SDS011;23928;47.562;7.508;2024-03-02T12:46:11;4.60;;;3.30;;
38117;SDS011;23928;47.562;7.508;2024-03-02T12:48:37;4.27;;;2.90;;
38117;SDS011;23928;47.562;7.508;2024-03-02T12:51:05;4.27;;;3.10;;
38117;SDS011;23928;47.562;7.508;2024-03-02T12:53:31;3.90;;;2.60;;
38117;SDS011;23928;47.562;7.508;2024-03-02T12:55:57;3.50;;;3.17;;
38117;SDS011;23928;47.562;7.508;2024-03-02T12:58:23;3.87;;;3.00;;
38117;SDS011;23928;47.562;7.508;2024-03-02T13:00:49;4.67;;;3.00;;
38117;SDS011;23928;47.562;7.508;2024-03-02T13:03:15;5.47;;;3.43;;
38117;SDS011;23928;47.562;7.508;2024-03-02T13:05:48;4.33;;;3.37;;
38117;SDS011;23928;47.562;7.508;2024-03-02T13:08:14;4.97;;;3.73;;
38117;SDS011;23928;47.562;7.508;2024-03-02T13:10:40;4.03;;;3.23;;
38117;SDS011;23928;47.562;7.508;2024-03-02T13:13:06;3.17;;;2.87;;
38117;SDS011;23928;47.562;7.508;2024-03-02T13:15:32;5.20;;;3.03;;
38117;SDS011;23928;47.562;7.508;2024-03-02T13:17:59;5.13;;;3.77;;
38117;SDS011;23928;47.562;7.508;2024-03-02T13:20:32;4.67;;;2.93;;
38117;SDS011;23928;47.562;7.508;2024-03-02T13:22:58;4.47;;;3.20;;
38117;SDS011;23928;47.562;7.508;2024-03-02T13:25:23;3.60;;;2.87;;
38117;SDS011;23928;47.562;7.508;2024-03-02T13:27:49;4.57;;;3.20;;
38117;SDS011;23928;47.562;7.508;2024-03-02T13:30:14;4.07;;;3.03;;
38117;SDS011;23928;47.562;7.508;2024-03-02T13:32:40;2.50;;;2.30;;
38117;SDS011;23928;47.562;7.508;2024-03-02T13:35:05;5.33;;;2.87;;
38117;SDS011;23928;47.562;7.508;2024-03-02T13:37:31;3.90;;;2.97;;
38117;SDS011;23928;47.562;7.508;2024-03-02T13:39:57;3.40;;;2.93;;
38117;SDS011;23928;47.562;7.508;2024-03-02T13:42:23;3.67;;;2.93;;
38117;SDS011;23928;47.562;7.508;2024-03-02T13:44:48;4.93;;;3.07;;
38117;SDS011;23928;47.562;7.508;2024-03-02T13:47:16;5.40;;;3.07;;
38117;SDS011;23928;47.562;7.508;2024-03-02T13:49:42;3.20;;;2.90;;
38117;SDS011;23928;47.562;7.508;2024-03-02T13:52:11;3.83;;;2.87;;
38117;SDS011;23928;47.562;7.508;2024-03-02T13:54:41;3.97;;;2.83;;
38117;SDS011;23928;47.562;7.508;2024-03-02T13:57:08;4.97;;;2.87;;
38117;SDS011;23928;47.562;7.508;2024-03-02T13:59:35;3.83;;;2.83;;
38117;SDS011;23928;47.562;7.508;2024-03-02T14:02:01;3.37;;;2.70;;
38117;SDS011;23928;47.562;7.508;2024-03-02T14:04:29;4.37;;;2.93;;
38117;SDS011;23928;47.562;7.508;2024-03-02T14:06:56;5.00;;;2.80;;
38117;SDS011;23928;47.562;7.508;2024-03-02T14:09:22;3.00;;;2.50;;
38117;SDS011;23928;47.562;7.508;2024-03-02T14:11:49;3.33;;;2.37;;
38117;SDS011;23928;47.562;7.508;2024-03-02T14:14:16;5.43;;;2.80;;
38117;SDS011;23928;47.562;7.508;2024-03-02T14:16:42;4.17;;;2.80;;
38117;SDS011;23928;47.562;7.508;2024-03-02T14:19:07;4.10;;;2.43;;
38117;SDS011;23928;47.562;7.508;2024-03-02T14:21:34;2.60;;;2.20;;
38117;SDS011;23928;47.562;7.508;2024-03-02T14:24:01;3.90;;;2.43;;
38117;SDS011;23928;47.562;7.508;2024-03-02T14:26:26;2.83;;;2.13;;
38117;SDS011;23928;47.562;7.508;2024-03-02T14:28:53;4.23;;;2.40;;
38117;SDS011;23928;47.562;7.508;2024-03-02T14:31:19;3.37;;;2.50;;
38117;SDS011;23928;47.562;7.508;2024-03-02T14:33:45;3.10;;;2.40;;
38117;SDS011;23928;47.562;7.508;2024-03-02T14:36:11;2.93;;;2.10;;
38117;SDS011;23928;47.562;7.508;2024-03-02T14:38:37;2.23;;;1.80;;
38117;SDS011;23928;47.562;7.508;2024-03-02T14:41:12;4.90;;;2.40;;